createdAt,value
2022-12-17T00:01:41.779Z,12.30
2022-12-17T00:04:33.020Z,12.90
2022-12-17T00:07:24.111Z,13.70
2022-12-17T00:10:18.777Z,14.00
2022-12-17T00:13:10.430Z,13.20
2022-12-17T00:16:02.408Z,13.80
2022-12-17T00:18:53.880Z,14.40
2022-12-17T00:21:48.980Z,13.40
2022-12-17T00:24:40.691Z,11.90
2022-12-17T00:27:31.977Z,13.30
2022-12-17T00:30:23.430Z,12.80
2022-12-17T00:33:15.353Z,13.20
2022-12-17T00:36:13.060Z,12.80
2022-12-17T00:39:23.040Z,11.40
2022-12-17T00:42:17.570Z,12.10
2022-12-17T00:45:09.081Z,14.20
2022-12-17T00:48:01.448Z,13.70
2022-12-17T00:50:53.282Z,13.30
2022-12-17T00:53:47.858Z,12.50
2022-12-17T00:56:39.118Z,14.50
2022-12-17T00:59:30.264Z,12.30
2022-12-17T01:02:21.556Z,13.00
2022-12-17T01:05:13.108Z,13.00
2022-12-17T01:08:05.043Z,11.70
2022-12-17T01:11:00.240Z,11.60
2022-12-17T01:13:52.632Z,11.80
2022-12-17T01:16:47.652Z,12.20
2022-12-17T01:19:39.452Z,12.80
2022-12-17T01:22:30.508Z,13.30
2022-12-17T01:25:21.729Z,12.90
2022-12-17T01:28:13.131Z,13.10
2022-12-17T01:31:04.599Z,13.30
2022-12-17T01:33:58.814Z,13.40
2022-12-17T01:36:50.967Z,12.10
2022-12-17T01:39:42.320Z,11.50
2022-12-17T01:42:34.662Z,10.80
2022-12-17T01:45:27.358Z,10.50
2022-12-17T01:48:25.871Z,9.60
2022-12-17T01:51:18.527Z,10.20
2022-12-17T01:54:13.013Z,9.50
2022-12-17T01:57:05.004Z,11.20
2022-12-17T02:00:22.963Z,11.60
2022-12-17T02:03:14.701Z,11.20
2022-12-17T02:06:25.892Z,9.90
2022-12-17T02:09:37.342Z,10.00
2022-12-17T02:12:55.378Z,10.70
2022-12-17T02:16:01.220Z,10.40
2022-12-17T02:19:10.856Z,9.50
2022-12-17T02:22:03.527Z,11.30
2022-12-17T02:24:57.432Z,11.80
2022-12-17T02:27:50.819Z,12.70
2022-12-17T02:30:43.878Z,12.50
2022-12-17T02:33:38.341Z,11.80
2022-12-17T02:36:31.167Z,12.70
2022-12-17T02:39:23.658Z,11.30
2022-12-17T02:42:17.524Z,11.10
2022-12-17T02:45:12.137Z,10.70
2022-12-17T02:48:04.305Z,10.80
2022-12-17T02:50:56.926Z,11.10
2022-12-17T02:53:49.100Z,10.80
2022-12-17T02:56:40.228Z,11.70
2022-12-17T02:59:31.654Z,12.10
2022-12-17T03:02:25.610Z,12.90
2022-12-17T03:05:43.971Z,13.10
2022-12-17T03:08:36.328Z,12.40
2022-12-17T03:11:28.045Z,13.50
2022-12-17T03:14:22.144Z,14.40
2022-12-17T03:17:13.475Z,12.80
2022-12-17T03:20:04.420Z,12.90
2022-12-17T03:22:56.171Z,12.60
2022-12-17T03:25:47.282Z,11.40
2022-12-17T03:28:39.319Z,12.30
2022-12-17T03:31:30.276Z,12.30
2022-12-17T03:34:22.386Z,11.20
2022-12-17T03:37:14.433Z,11.90
2022-12-17T03:40:06.702Z,12.80
2022-12-17T03:42:58.171Z,12.30
2022-12-17T03:45:50.435Z,13.10
2022-12-17T03:48:42.228Z,10.70
2022-12-17T03:51:33.524Z,12.40
2022-12-17T03:54:24.975Z,13.00
2022-12-17T03:57:16.882Z,12.10
2022-12-17T04:00:08.458Z,11.50
2022-12-17T04:03:06.407Z,11.30
2022-12-17T04:05:58.011Z,12.50
2022-12-17T04:08:49.453Z,12.30
2022-12-17T04:11:40.917Z,13.60
2022-12-17T04:14:32.385Z,12.90
2022-12-17T04:17:23.576Z,12.90
2022-12-17T04:20:14.720Z,13.60
2022-12-17T04:23:06.095Z,12.10
2022-12-17T04:25:57.542Z,13.60
2022-12-17T04:28:49.027Z,13.00
2022-12-17T04:31:40.454Z,12.80
2022-12-17T04:34:31.961Z,13.50
2022-12-17T04:37:23.334Z,12.80
2022-12-17T04:40:14.488Z,13.30
2022-12-17T04:43:05.994Z,12.20
2022-12-17T04:45:57.596Z,12.90
2022-12-17T04:48:49.024Z,11.50
2022-12-17T04:51:40.282Z,13.10
2022-12-17T04:54:39.844Z,13.10
2022-12-17T04:57:30.724Z,12.60
2022-12-17T05:00:21.801Z,13.20
2022-12-17T05:03:13.371Z,12.40
2022-12-17T05:06:04.586Z,13.40
2022-12-17T05:08:55.732Z,12.90
2022-12-17T05:11:47.593Z,13.70
2022-12-17T05:14:39.304Z,14.30
2022-12-17T05:17:31.324Z,19.20
2022-12-17T05:20:22.533Z,23.80
2022-12-17T05:23:14.384Z,19.90
2022-12-17T05:26:19.959Z,19.60
2022-12-17T05:29:15.840Z,18.40
2022-12-17T05:32:07.636Z,17.80
2022-12-17T05:34:59.331Z,15.30
2022-12-17T05:37:50.921Z,14.90
2022-12-17T05:40:43.264Z,14.60
2022-12-17T05:43:34.722Z,14.00
2022-12-17T05:46:26.660Z,14.90
2022-12-17T05:49:17.921Z,14.70
2022-12-17T05:52:09.023Z,14.60
2022-12-17T05:55:02.804Z,14.10
2022-12-17T05:57:56.617Z,15.10
2022-12-17T06:00:47.790Z,15.10
2022-12-17T06:03:39.556Z,16.60
2022-12-17T06:06:31.752Z,14.70
2022-12-17T06:09:23.689Z,14.90
2022-12-17T06:12:14.890Z,17.00
2022-12-17T06:15:06.440Z,15.80
2022-12-17T06:17:57.630Z,14.90
2022-12-17T06:20:48.919Z,16.80
2022-12-17T06:23:40.590Z,15.50
2022-12-17T06:26:32.398Z,15.90
2022-12-17T06:29:23.597Z,16.90
2022-12-17T06:32:15.257Z,16.10
2022-12-17T06:35:06.551Z,14.20
2022-12-17T06:37:57.705Z,17.30
2022-12-17T06:40:48.772Z,17.40
2022-12-17T06:43:40.390Z,17.20
2022-12-17T06:46:31.544Z,16.10
2022-12-17T06:49:23.024Z,15.40
2022-12-17T06:52:14.517Z,17.00
2022-12-17T06:55:05.790Z,17.60
2022-12-17T06:57:56.947Z,16.50
2022-12-17T07:00:48.503Z,17.30
2022-12-17T07:03:42.878Z,15.90
2022-12-17T07:06:34.789Z,15.30
2022-12-17T07:09:26.516Z,15.70
2022-12-17T07:12:18.151Z,15.10
2022-12-17T07:15:09.737Z,15.30
2022-12-17T07:18:01.106Z,16.50
2022-12-17T07:20:52.289Z,18.70
2022-12-17T07:23:43.476Z,15.90
2022-12-17T07:26:34.622Z,18.40
2022-12-17T07:29:26.656Z,17.20
2022-12-17T07:32:18.386Z,18.40
2022-12-17T07:35:09.992Z,17.90
2022-12-17T07:38:01.288Z,18.00
2022-12-17T07:40:53.347Z,18.30
2022-12-17T07:43:48.274Z,17.70
2022-12-17T07:46:46.485Z,18.70
2022-12-17T07:49:37.629Z,17.80
2022-12-17T07:52:28.864Z,17.60
2022-12-17T07:55:19.961Z,16.00
2022-12-17T07:58:22.804Z,17.00
2022-12-17T08:01:14.218Z,16.80
2022-12-17T08:04:06.343Z,19.40
2022-12-17T08:07:02.768Z,20.50
2022-12-17T08:09:58.308Z,21.90
2022-12-17T08:12:52.408Z,19.40
2022-12-17T08:15:43.852Z,18.90
2022-12-17T08:18:35.208Z,19.90
2022-12-17T08:21:26.891Z,19.90
2022-12-17T08:24:17.883Z,22.90
2022-12-17T08:27:09.381Z,24.00
2022-12-17T08:30:02.728Z,21.30
2022-12-17T08:32:54.087Z,20.60
2022-12-17T08:35:45.258Z,23.50
2022-12-17T08:38:37.182Z,28.90
2022-12-17T08:41:28.371Z,30.60
2022-12-17T08:44:19.988Z,26.70
2022-12-17T08:47:11.154Z,25.50
2022-12-17T08:50:02.969Z,19.00
2022-12-17T08:52:54.429Z,21.00
2022-12-17T08:55:45.889Z,20.20
2022-12-17T08:58:37.274Z,19.60
2022-12-17T09:01:29.068Z,15.90
2022-12-17T09:04:20.725Z,15.20
2022-12-17T09:07:12.211Z,16.40
2022-12-17T09:10:03.627Z,17.40
2022-12-17T09:12:58.578Z,17.50
2022-12-17T09:15:54.042Z,19.00
2022-12-17T09:18:45.964Z,17.40
2022-12-17T09:21:37.783Z,19.30
2022-12-17T09:24:32.298Z,17.00
2022-12-17T09:27:24.144Z,18.50
2022-12-17T09:30:17.323Z,18.80
2022-12-17T09:33:09.880Z,20.10
2022-12-17T09:36:02.877Z,21.30
2022-12-17T09:38:54.591Z,19.10
2022-12-17T09:42:19.378Z,17.90
2022-12-17T09:45:24.565Z,19.70
2022-12-17T09:48:41.993Z,18.70
2022-12-17T09:51:46.039Z,21.20
2022-12-17T09:54:38.078Z,21.60
2022-12-17T09:57:37.764Z,22.10
2022-12-17T10:00:41.224Z,20.80
2022-12-17T10:03:45.098Z,21.30
2022-12-17T10:06:45.282Z,20.10
2022-12-17T10:09:38.372Z,19.40
2022-12-17T10:12:50.665Z,20.40
2022-12-17T10:15:42.241Z,20.90
2022-12-17T10:18:35.764Z,26.10
2022-12-17T10:21:33.323Z,24.80
2022-12-17T10:24:31.901Z,22.30
2022-12-17T10:27:39.582Z,24.10
2022-12-17T10:30:38.241Z,20.30
2022-12-17T10:33:42.923Z,23.00
2022-12-17T10:36:45.591Z,23.20
2022-12-17T10:39:46.665Z,22.70
2022-12-17T10:43:00.412Z,22.50
2022-12-17T10:45:55.798Z,22.50
2022-12-17T10:48:51.797Z,20.70
2022-12-17T10:51:57.344Z,20.80
2022-12-17T10:54:51.783Z,19.50
2022-12-17T10:57:59.455Z,18.70
2022-12-17T11:01:04.250Z,21.60
2022-12-17T11:03:57.924Z,19.10
2022-12-17T11:06:59.785Z,19.40
2022-12-17T11:10:09.409Z,21.10
2022-12-17T11:13:16.428Z,21.60
2022-12-17T11:16:11.646Z,22.30
2022-12-17T11:19:37.974Z,23.10
2022-12-17T11:22:51.703Z,23.80
2022-12-17T11:26:02.775Z,21.80
2022-12-17T11:28:58.496Z,17.80
2022-12-17T11:32:08.040Z,19.30
2022-12-17T11:35:27.526Z,18.70
2022-12-17T11:38:57.550Z,17.80
2022-12-17T11:42:09.492Z,18.00
2022-12-17T11:45:18.976Z,18.30
2022-12-17T11:48:25.253Z,19.40
2022-12-17T11:51:24.868Z,19.40
2022-12-17T11:54:18.435Z,16.90
2022-12-17T11:57:45.812Z,19.00
2022-12-17T12:00:44.055Z,17.60
2022-12-17T12:04:08.950Z,18.00
2022-12-17T12:07:23.782Z,17.00
2022-12-17T12:10:45.701Z,17.90
2022-12-17T12:13:58.708Z,23.20
2022-12-17T12:17:10.893Z,21.90
2022-12-17T12:20:04.674Z,20.40
2022-12-17T12:23:20.591Z,20.90
2022-12-17T12:26:24.635Z,22.10
2022-12-17T12:29:38.015Z,12.20
2022-12-17T12:32:35.291Z,19.90
2022-12-17T12:35:32.930Z,20.70
2022-12-17T12:38:25.655Z,24.30
2022-12-17T12:41:28.036Z,26.40
2022-12-17T12:44:38.186Z,25.10
2022-12-17T12:47:38.645Z,21.90
2022-12-17T12:50:49.209Z,25.60
2022-12-17T12:53:41.834Z,22.90
2022-12-17T12:59:54.977Z,21.20
2022-12-17T13:02:51.324Z,19.90
2022-12-17T13:05:41.630Z,20.20
2022-12-17T13:08:14.136Z,24.70
2022-12-17T13:10:47.331Z,21.00
2022-12-17T13:14:00.648Z,25.10
2022-12-17T13:16:49.771Z,24.10
2022-12-17T13:19:33.865Z,24.60
2022-12-17T13:22:24.028Z,22.60
2022-12-17T13:25:23.023Z,23.00
2022-12-17T13:27:56.610Z,22.80
2022-12-17T13:30:39.604Z,18.10
2022-12-17T13:33:14.868Z,22.90
2022-12-17T13:36:05.228Z,24.30
2022-12-17T13:39:23.789Z,25.00
2022-12-17T13:42:00.665Z,20.40
2022-12-17T13:44:47.063Z,15.20
2022-12-17T13:47:26.087Z,16.40
2022-12-17T13:50:32.642Z,14.90
2022-12-17T13:52:57.827Z,22.60
2022-12-17T13:55:31.139Z,21.70
2022-12-17T13:58:03.681Z,24.60
2022-12-17T14:00:36.335Z,17.20
2022-12-17T14:03:15.882Z,21.50
2022-12-17T14:05:49.856Z,19.70
2022-12-17T14:08:23.329Z,16.70
2022-12-17T14:11:21.533Z,19.20
2022-12-17T14:13:55.606Z,14.90
2022-12-17T14:16:28.568Z,16.00
2022-12-17T14:19:02.001Z,14.50
2022-12-17T14:21:34.930Z,21.80
2022-12-17T14:24:08.237Z,22.50
2022-12-17T14:26:55.321Z,19.30
2022-12-17T14:29:31.139Z,13.10
2022-12-17T14:32:24.189Z,18.50
2022-12-17T14:35:00.658Z,12.40
2022-12-17T14:37:34.962Z,16.10
2022-12-17T14:40:08.544Z,16.10
2022-12-17T14:42:42.315Z,18.50
2022-12-17T14:45:17.476Z,12.20
2022-12-17T14:47:57.728Z,15.10
2022-12-17T14:50:39.018Z,11.80
2022-12-17T14:53:29.446Z,14.40
2022-12-17T14:56:02.410Z,11.40
2022-12-17T14:58:35.503Z,9.20
2022-12-17T15:01:15.737Z,7.90
2022-12-17T15:03:48.870Z,12.80
2022-12-17T15:06:22.377Z,12.10
2022-12-17T15:08:55.778Z,9.30
2022-12-17T15:11:28.809Z,13.40
2022-12-17T15:14:02.251Z,10.70
2022-12-17T15:16:35.096Z,9.30
2022-12-17T15:19:07.934Z,11.00
2022-12-17T15:21:40.767Z,11.10
2022-12-17T15:24:19.159Z,9.30
2022-12-17T15:26:52.096Z,6.80
2022-12-17T15:29:25.087Z,9.70
2022-12-17T15:31:57.771Z,9.10
2022-12-17T15:34:30.383Z,7.70
2022-12-17T15:37:03.421Z,8.10
2022-12-17T15:39:36.145Z,6.00
2022-12-17T15:42:27.591Z,7.70
2022-12-17T15:45:00.403Z,5.30
2022-12-17T15:47:32.920Z,7.50
2022-12-17T15:50:07.827Z,5.70
2022-12-17T15:52:41.031Z,6.00
2022-12-17T15:55:17.596Z,5.50
2022-12-17T15:57:50.333Z,5.40
2022-12-17T16:00:23.316Z,4.40
2022-12-17T16:02:55.992Z,5.90
2022-12-17T16:05:29.852Z,4.90
2022-12-17T16:08:02.872Z,4.20
2022-12-17T16:10:35.673Z,4.30
2022-12-17T16:13:08.472Z,4.00
2022-12-17T16:15:41.154Z,4.70
2022-12-17T16:18:13.818Z,4.00
2022-12-17T16:20:46.413Z,3.70
2022-12-17T16:23:19.301Z,3.40
2022-12-17T16:26:04.337Z,3.50
2022-12-17T16:28:38.467Z,3.70
2022-12-17T16:31:17.231Z,4.30
2022-12-17T16:33:49.837Z,3.20
2022-12-17T16:36:24.038Z,3.50
2022-12-17T16:38:57.716Z,4.10
2022-12-17T16:41:30.775Z,3.40
2022-12-17T16:44:03.753Z,3.30
2022-12-17T16:46:41.315Z,4.20
2022-12-17T16:49:22.738Z,3.40
2022-12-17T16:51:59.904Z,2.00
2022-12-17T16:54:34.248Z,2.70
2022-12-17T16:57:06.824Z,3.40
2022-12-17T16:59:39.647Z,3.60
2022-12-17T17:02:18.797Z,3.00
2022-12-17T17:04:51.695Z,2.70
2022-12-17T17:07:24.400Z,3.60
2022-12-17T17:09:58.189Z,3.10
2022-12-17T17:12:31.054Z,2.90
2022-12-17T17:15:03.854Z,3.00
2022-12-17T17:17:55.565Z,3.20
2022-12-17T17:20:32.753Z,3.00
2022-12-17T17:23:05.564Z,2.30
2022-12-17T17:25:57.758Z,3.50
2022-12-17T17:28:33.736Z,2.20
2022-12-17T17:31:10.893Z,2.80
2022-12-17T17:33:47.349Z,2.30
2022-12-17T17:36:25.593Z,2.30
2022-12-17T17:39:02.937Z,2.20
2022-12-17T17:41:36.776Z,3.10
2022-12-17T17:44:12.581Z,2.80
2022-12-17T17:46:45.110Z,3.20
2022-12-17T17:49:18.373Z,3.80
2022-12-17T17:52:09.084Z,3.70
2022-12-17T17:54:45.602Z,3.80
2022-12-17T17:57:18.702Z,3.80
2022-12-17T17:59:52.223Z,4.10
2022-12-17T18:02:25.163Z,1.80
2022-12-17T18:05:00.818Z,3.30
2022-12-17T18:07:33.483Z,3.50
2022-12-17T18:10:06.277Z,4.30
2022-12-17T18:12:57.406Z,4.50
2022-12-17T18:15:30.354Z,2.80
2022-12-17T18:18:03.377Z,4.00
2022-12-17T18:20:36.245Z,4.30
2022-12-17T18:23:09.329Z,4.40
2022-12-17T18:25:42.054Z,3.00
2022-12-17T18:28:14.977Z,2.70
2022-12-17T18:30:50.314Z,3.40
2022-12-17T18:33:23.294Z,4.10
2022-12-17T18:35:56.233Z,4.20
2022-12-17T18:38:29.466Z,4.40
2022-12-17T18:41:34.047Z,4.20
2022-12-17T18:44:08.592Z,4.80
2022-12-17T18:46:41.804Z,2.70
2022-12-17T18:49:16.364Z,4.60
2022-12-17T18:51:50.605Z,4.40
2022-12-17T18:54:31.662Z,4.10
2022-12-17T18:57:05.017Z,4.00
2022-12-17T18:59:37.839Z,3.60
2022-12-17T19:02:16.597Z,3.10
2022-12-17T19:04:49.612Z,3.40
2022-12-17T19:07:22.569Z,3.10
2022-12-17T19:09:55.442Z,3.60
2022-12-17T19:12:28.376Z,3.60
2022-12-17T19:15:01.027Z,4.00
2022-12-17T19:17:33.613Z,3.60
2022-12-17T19:20:06.687Z,3.10
2022-12-17T19:22:39.460Z,3.90
2022-12-17T19:25:12.705Z,3.00
2022-12-17T19:27:45.498Z,2.40
2022-12-17T19:30:18.299Z,3.40
2022-12-17T19:32:51.546Z,3.60
2022-12-17T19:35:24.689Z,3.00
2022-12-17T19:37:58.162Z,3.90
2022-12-17T19:40:32.295Z,3.20
2022-12-17T19:43:05.395Z,3.00
2022-12-17T19:45:37.782Z,3.20
2022-12-17T19:48:10.420Z,3.60
2022-12-17T19:50:43.099Z,3.60
2022-12-17T19:53:19.084Z,3.60
2022-12-17T19:55:51.860Z,3.80
2022-12-17T19:58:25.872Z,3.40
2022-12-17T20:00:58.395Z,5.00
2022-12-17T20:03:31.649Z,5.80
2022-12-17T20:06:05.254Z,5.20
2022-12-17T20:08:38.330Z,3.80
2022-12-17T20:11:32.157Z,4.70
2022-12-17T20:14:14.390Z,5.10
2022-12-17T20:16:52.588Z,6.00
2022-12-17T20:19:31.579Z,4.70
2022-12-17T20:22:06.254Z,5.20
2022-12-17T20:24:39.923Z,5.30
2022-12-17T20:27:13.302Z,5.40
2022-12-17T20:29:46.333Z,5.40
2022-12-17T20:32:21.576Z,4.00
2022-12-17T20:34:54.636Z,5.40
2022-12-17T20:37:27.381Z,6.30
2022-12-17T20:40:00.224Z,7.30
2022-12-17T20:42:33.446Z,5.30
2022-12-17T20:45:06.701Z,4.70
2022-12-17T20:47:39.691Z,4.70
2022-12-17T20:50:13.287Z,5.90
2022-12-17T20:52:46.228Z,5.80
2022-12-17T20:55:19.040Z,6.60
2022-12-17T20:57:51.299Z,6.70
2022-12-17T21:02:55.247Z,4.80
2022-12-17T21:05:28.812Z,7.10
2022-12-17T21:08:01.598Z,7.70
2022-12-17T21:10:35.385Z,8.00
2022-12-17T21:13:26.763Z,6.70
2022-12-17T21:16:02.255Z,6.30
2022-12-17T21:18:36.577Z,6.90
2022-12-17T21:21:12.740Z,10.90
2022-12-17T21:23:46.123Z,7.50
2022-12-17T21:26:20.530Z,7.00
2022-12-17T21:28:54.818Z,7.60
2022-12-17T21:31:38.020Z,8.50
2022-12-17T21:34:14.465Z,9.30
2022-12-17T21:36:47.239Z,8.70
2022-12-17T21:39:20.391Z,8.60
2022-12-17T21:42:12.389Z,7.40
2022-12-17T21:44:45.518Z,8.00
2022-12-17T21:47:18.664Z,6.90
2022-12-17T21:49:51.853Z,9.00
2022-12-17T21:52:24.809Z,6.10
2022-12-17T21:54:58.100Z,7.60
2022-12-17T21:57:31.674Z,12.40
2022-12-17T22:00:04.321Z,11.20
2022-12-17T22:02:37.123Z,9.70
2022-12-17T22:05:13.701Z,8.80
2022-12-17T22:07:50.984Z,6.10
2022-12-17T22:10:37.237Z,7.20
2022-12-17T22:13:39.236Z,7.90
2022-12-17T22:16:12.404Z,9.10
2022-12-17T22:18:45.368Z,7.40
2022-12-17T22:21:18.761Z,7.60
2022-12-17T22:23:52.824Z,9.60
2022-12-17T22:26:25.764Z,6.20
2022-12-17T22:28:58.754Z,7.50
2022-12-17T22:31:49.958Z,10.10
2022-12-17T22:35:21.187Z,9.50
2022-12-17T22:41:26.934Z,7.60
2022-12-17T22:44:38.322Z,12.90
2022-12-17T22:44:45.255Z,11.60
2022-12-17T22:46:20.202Z,14.20
2022-12-17T22:48:52.640Z,7.50
2022-12-17T22:51:29.419Z,8.50
2022-12-17T22:54:16.485Z,13.10
2022-12-17T22:57:34.698Z,12.40
2022-12-17T22:59:43.867Z,9.30
2022-12-17T23:02:17.728Z,10.90
2022-12-17T23:04:50.835Z,10.60
2022-12-17T23:07:26.968Z,9.60
2022-12-17T23:10:06.041Z,11.20
2022-12-17T23:12:55.962Z,11.30
2022-12-17T23:15:36.814Z,13.20
2022-12-17T23:18:10.239Z,10.00
2022-12-17T23:20:43.121Z,11.30
2022-12-17T23:23:16.257Z,10.80
2022-12-17T23:25:49.148Z,10.60
2022-12-17T23:28:21.893Z,15.10
2022-12-17T23:30:54.958Z,10.50
2022-12-17T23:33:28.970Z,13.10
2022-12-17T23:36:09.590Z,15.70
2022-12-17T23:38:42.635Z,8.50
2022-12-17T23:41:23.567Z,14.70
2022-12-17T23:43:57.298Z,12.10
2022-12-17T23:46:32.174Z,10.10
2022-12-17T23:49:07.011Z,12.20
2022-12-17T23:51:39.944Z,12.90
2022-12-17T23:54:13.241Z,13.40
2022-12-17T23:56:46.180Z,13.70
2022-12-17T23:59:18.723Z,12.30
